EHRD/RTM METAR and TAF weather

Enter ICAO airport designator
Station Type Date Time Source
EHRD METAR 2022/01/26 08:25 UTC NOAA

EHRD 260825Z AUTO 27009KT 230V300 8000 OVC011 04/02 Q1032 NOSIG


Station Type Date Time Source
EHRD Decoded METAR 2022/01/26 08:25 UTC NOAA

Rotterdam Airport Zestienhoven, Netherlands (EHRD) 51-57N 004-27E -4M
Jan 26, 2022 - 03:25 AM EST / 2022.01.26 0825 UTC
Wind: from the W (270 degrees) at 10 MPH (9 KT) (direction variable):0
Visibility: 4 mile(s):0
Sky conditions: overcast
Temperature: 39 F (4 C)
Dew Point: 35 F (2 C)
Relative Humidity: 86%
Pressure (altimeter): 30.47 in. Hg (1032 hPa)
ob: EHRD 260825Z AUTO 27009KT 230V300 8000 OVC011 04/02 Q1032 NOSIG
cycle: 8

Station Type Date Time Source
EHRD TAF 2022/01/26 06:27 UTC NOAA

TAF TAF EHRD 260500Z 2606/2712 26007KT 3500 BR OVC010
BECMG 2607/2610 9999 NSW OVC018 PROB40
TEMPO 2612/2621 7000 BKN012
BECMG 2619/2622 24015G25KT
BECMG 2706/2708 6000 -RA OVC010
BECMG 2710/2712 29015G25KT 9999 NSW SCT020

Example: see airport list